createdAt,value
2018-07-10T00:07:15.484Z,19.57
2018-07-10T00:11:55.396Z,19.64
2018-07-10T00:14:25.749Z,19.58
2018-07-10T00:16:56.184Z,19.57
2018-07-10T00:19:26.580Z,19.56
2018-07-10T00:21:56.993Z,19.70
2018-07-10T00:24:27.659Z,19.44
2018-07-10T00:26:58.453Z,19.63
2018-07-10T00:29:28.853Z,19.67
2018-07-10T00:31:59.654Z,19.27
2018-07-10T00:34:30.074Z,19.33
2018-07-10T00:37:00.512Z,19.17
2018-07-10T00:39:31.192Z,19.02
2018-07-10T00:42:01.880Z,18.89
2018-07-10T00:44:32.596Z,18.81
2018-07-10T00:47:02.638Z,18.90
2018-07-10T00:49:33.093Z,19.00
2018-07-10T00:52:03.508Z,19.07
2018-07-10T00:54:33.922Z,19.10
2018-07-10T00:57:04.416Z,19.06
2018-07-10T00:59:34.924Z,19.06
2018-07-10T01:02:04.766Z,18.96
2018-07-10T01:04:34.618Z,18.88
2018-07-10T01:07:04.439Z,18.87
2018-07-10T01:09:34.236Z,18.81
2018-07-10T01:12:04.466Z,18.97
2018-07-10T01:14:35.160Z,18.98
2018-07-10T01:17:05.586Z,19.02
2018-07-10T01:19:35.484Z,19.04
2018-07-10T01:22:05.378Z,19.14
2018-07-10T01:24:35.588Z,18.92
2018-07-10T01:27:06.036Z,18.95
2018-07-10T01:29:41.386Z,18.72
2018-07-10T01:32:11.394Z,18.65
2018-07-10T01:34:41.175Z,18.64
2018-07-10T01:37:11.108Z,18.67
2018-07-10T01:39:41.458Z,18.83
2018-07-10T01:42:11.366Z,19.02
2018-07-10T01:44:41.495Z,18.99
2018-07-10T01:47:11.935Z,19.01
2018-07-10T01:49:42.384Z,18.99
2018-07-10T01:52:13.068Z,19.01
2018-07-10T01:54:43.593Z,18.94
2018-07-10T01:57:14.031Z,19.08
2018-07-10T01:59:43.888Z,19.17
2018-07-10T02:02:14.280Z,19.07
2018-07-10T02:04:44.687Z,19.15
2018-07-10T02:07:14.570Z,19.09
2018-07-10T02:09:44.782Z,18.97
2018-07-10T02:12:14.591Z,18.94
2018-07-10T02:14:44.522Z,18.84
2018-07-10T02:17:14.758Z,18.66
2018-07-10T02:19:44.694Z,18.57
2018-07-10T02:22:14.590Z,18.70
2018-07-10T02:24:44.491Z,18.71
2018-07-10T02:27:15.238Z,18.83
2018-07-10T02:29:45.190Z,18.69
2018-07-10T02:32:15.603Z,18.69
2018-07-10T02:34:45.532Z,18.64
2018-07-10T02:37:15.418Z,18.80
2018-07-10T02:39:45.280Z,18.67
2018-07-10T02:42:15.198Z,18.62
2018-07-10T02:44:45.616Z,18.62
2018-07-10T02:47:16.122Z,18.47
2018-07-10T02:49:46.025Z,18.46
2018-07-10T02:52:15.936Z,18.37
2018-07-10T02:54:46.770Z,18.36
2018-07-10T02:57:17.479Z,18.38
2018-07-10T02:59:48.060Z,18.51
2018-07-10T03:02:29.621Z,18.46
2018-07-10T03:05:06.587Z,18.37
2018-07-10T03:07:38.683Z,18.31
2018-07-10T03:10:08.853Z,18.44
2018-07-10T03:12:40.478Z,18.41
2018-07-10T03:15:14.857Z,18.41
2018-07-10T03:17:44.751Z,18.29
2018-07-10T03:20:15.256Z,18.36
2018-07-10T03:22:45.124Z,18.49
2018-07-10T03:25:15.043Z,18.44
2018-07-10T03:27:44.955Z,18.39
2018-07-10T03:30:14.767Z,18.41
2018-07-10T03:32:44.711Z,18.36
2018-07-10T03:35:14.551Z,18.33
2018-07-10T03:37:44.541Z,18.44
2018-07-10T03:40:17.734Z,18.38
2018-07-10T03:42:48.227Z,18.32
2018-07-10T03:45:18.157Z,18.15
2018-07-10T03:47:48.431Z,18.10
2018-07-10T03:50:18.374Z,18.13
2018-07-10T03:52:48.578Z,18.04
2018-07-10T03:55:19.593Z,18.06
2018-07-10T03:57:54.678Z,18.03
2018-07-10T04:00:24.963Z,18.02
2018-07-10T04:02:55.263Z,18.24
2018-07-10T04:05:25.079Z,18.28
2018-07-10T04:07:58.972Z,18.18
2018-07-10T04:10:35.675Z,18.27
2018-07-10T04:13:18.211Z,18.42
2018-07-10T04:15:50.681Z,18.31
2018-07-10T04:18:25.977Z,18.26
2018-07-10T04:21:19.862Z,18.23
2018-07-10T04:23:55.729Z,18.13
2018-07-10T04:26:25.861Z,18.19
2018-07-10T04:29:09.105Z,18.40
2018-07-10T04:31:51.503Z,18.36
2018-07-10T04:34:21.767Z,18.31
2018-07-10T04:36:52.600Z,18.32
2018-07-10T04:39:22.663Z,18.39
2018-07-10T04:42:09.536Z,18.43
2018-07-10T04:44:39.383Z,18.39
2018-07-10T04:47:17.447Z,18.46
2018-07-10T04:50:05.521Z,18.48
2018-07-10T04:52:36.711Z,18.55
2018-07-10T04:55:13.669Z,18.37
2018-07-10T04:58:07.526Z,18.34
2018-07-10T05:00:45.831Z,18.50
2018-07-10T05:03:18.506Z,18.52
2018-07-10T05:05:48.876Z,18.56
2018-07-10T05:08:21.905Z,18.68
2018-07-10T05:10:53.857Z,18.71
2018-07-10T05:13:25.087Z,18.75
2018-07-10T05:16:00.259Z,18.80
2018-07-10T05:18:30.749Z,18.79
2018-07-10T05:21:07.839Z,18.88
2018-07-10T05:23:37.705Z,18.92
2018-07-10T05:26:07.668Z,18.81
2018-07-10T05:28:37.557Z,18.70
2018-07-10T05:31:07.901Z,18.68
2018-07-10T05:33:41.209Z,18.66
2018-07-10T05:36:11.533Z,18.80
2018-07-10T05:38:46.523Z,18.92
2018-07-10T05:41:22.347Z,18.96
2018-07-10T05:43:53.906Z,19.11
2018-07-10T05:46:25.208Z,19.27
2018-07-10T05:49:06.844Z,19.38
2018-07-10T05:51:47.744Z,19.42
2018-07-10T05:54:17.879Z,19.35
2018-07-10T05:56:47.784Z,19.73
2018-07-10T05:59:18.306Z,20.19
2018-07-10T06:01:48.844Z,20.71
2018-07-10T06:04:19.562Z,21.37
2018-07-10T06:06:50.018Z,21.79
2018-07-10T06:09:20.394Z,21.75
2018-07-10T06:11:50.813Z,21.93
2018-07-10T06:14:21.141Z,22.44
2018-07-10T06:16:53.118Z,22.66
2018-07-10T06:19:23.475Z,22.59
2018-07-10T06:21:54.181Z,22.52
2018-07-10T06:24:27.478Z,22.57
2018-07-10T06:27:04.234Z,22.60
2018-07-10T06:29:50.012Z,22.44
2018-07-10T06:32:22.492Z,22.36
2018-07-10T06:35:07.912Z,21.98
2018-07-10T06:37:43.120Z,21.56
2018-07-10T06:40:14.500Z,21.26
2018-07-10T06:42:54.298Z,21.10
2018-07-10T06:45:25.166Z,20.88
2018-07-10T06:47:55.890Z,21.16
2018-07-10T06:50:26.638Z,21.34
2018-07-10T06:52:57.241Z,21.40
2018-07-10T06:55:28.056Z,21.59
2018-07-10T06:57:59.663Z,21.34
2018-07-10T07:00:30.360Z,21.46
2018-07-10T07:03:03.374Z,21.69
2018-07-10T07:05:34.171Z,22.03
2018-07-10T07:08:04.673Z,22.07
2018-07-10T07:10:35.209Z,22.15
2018-07-10T07:13:05.668Z,22.03
2018-07-10T07:15:36.030Z,22.09
2018-07-10T07:18:06.478Z,22.45
2018-07-10T07:20:37.370Z,22.77
2018-07-10T07:23:07.792Z,22.97
2018-07-10T07:25:38.314Z,23.20
2018-07-10T07:28:09.060Z,23.08
2018-07-10T07:30:39.396Z,22.96
2018-07-10T07:33:09.816Z,22.95
2018-07-10T07:35:40.184Z,22.99
2018-07-10T07:38:11.226Z,23.01
2018-07-10T07:40:42.266Z,22.84
2018-07-10T07:43:13.085Z,23.10
2018-07-10T07:45:43.450Z,23.25
2018-07-10T07:48:14.480Z,23.58
2018-07-10T07:50:44.956Z,23.78
2018-07-10T07:53:15.377Z,24.21
2018-07-10T07:55:46.336Z,24.08
2018-07-10T07:58:16.809Z,24.00
2018-07-10T08:00:47.248Z,23.87
2018-07-10T08:03:18.002Z,23.76
2018-07-10T08:05:48.440Z,23.74
2018-07-10T08:08:18.852Z,23.69
2018-07-10T08:10:49.289Z,23.80
2018-07-10T08:13:19.888Z,23.69
2018-07-10T08:15:50.546Z,23.63
2018-07-10T08:18:20.966Z,23.82
2018-07-10T08:20:51.520Z,23.84
2018-07-10T08:23:22.716Z,23.95
2018-07-10T08:25:53.824Z,23.63
2018-07-10T08:28:24.358Z,23.69
2018-07-10T08:30:55.648Z,23.64
2018-07-10T08:33:26.217Z,23.88
2018-07-10T08:35:57.226Z,24.15
2018-07-10T08:38:44.912Z,24.13
2018-07-10T08:41:22.564Z,24.06
2018-07-10T08:43:53.550Z,24.25
2018-07-10T08:46:28.287Z,24.20
2018-07-10T08:48:59.756Z,24.13
2018-07-10T08:51:30.262Z,24.22
2018-07-10T08:54:00.307Z,24.33
2018-07-10T08:56:30.728Z,24.70
2018-07-10T08:59:02.060Z,24.75
2018-07-10T09:01:33.346Z,24.72
2018-07-10T09:04:03.790Z,24.59
2018-07-10T09:06:34.217Z,24.63
2018-07-10T09:09:06.056Z,24.52
2018-07-10T09:11:36.474Z,24.85
2018-07-10T09:14:06.953Z,24.60
2018-07-10T09:16:37.770Z,24.34
2018-07-10T09:19:10.483Z,24.15
2018-07-10T09:21:46.146Z,24.06
2018-07-10T09:24:16.529Z,23.66
2018-07-10T09:26:46.946Z,23.61
2018-07-10T09:29:17.471Z,23.53
2018-07-10T09:31:48.251Z,23.30
2018-07-10T09:34:18.634Z,22.90
2018-07-10T09:36:49.437Z,22.60
2018-07-10T09:39:19.838Z,22.59
2018-07-10T09:41:50.259Z,22.99
2018-07-10T09:44:20.810Z,23.23
2018-07-10T09:46:51.392Z,23.59
2018-07-10T09:49:21.827Z,23.91
2018-07-10T09:51:52.514Z,24.14
2018-07-10T09:54:23.289Z,24.43
2018-07-10T09:56:53.890Z,24.65
2018-07-10T09:59:24.341Z,24.48
2018-07-10T10:02:00.806Z,24.65
2018-07-10T10:04:32.169Z,24.77
2018-07-10T10:07:02.589Z,24.57
2018-07-10T10:09:33.068Z,24.63
2018-07-10T10:12:03.827Z,24.75
2018-07-10T10:14:34.207Z,24.59
2018-07-10T10:17:05.241Z,24.41
2018-07-10T10:19:35.703Z,24.37
2018-07-10T10:22:06.513Z,24.67
2018-07-10T10:24:36.998Z,24.50
2018-07-10T10:27:07.365Z,24.61
2018-07-10T10:29:37.765Z,24.87
2018-07-10T10:32:08.293Z,25.09
2018-07-10T10:34:38.759Z,25.17
2018-07-10T10:37:10.093Z,24.30
2018-07-10T10:39:40.540Z,24.76
2018-07-10T10:42:10.977Z,25.04
2018-07-10T10:44:42.326Z,25.33
2018-07-10T10:47:14.753Z,25.27
2018-07-10T10:49:45.710Z,25.50
2018-07-10T10:52:16.649Z,25.64
2018-07-10T10:54:47.261Z,25.79
2018-07-10T10:57:18.399Z,25.59
2018-07-10T10:59:52.474Z,25.61
2018-07-10T11:02:23.471Z,25.28
2018-07-10T11:04:54.150Z,25.07
2018-07-10T11:07:24.629Z,25.04
2018-07-10T11:09:55.089Z,24.84
2018-07-10T11:12:27.527Z,24.56
2018-07-10T11:14:58.438Z,24.88
2018-07-10T11:17:34.671Z,25.07
2018-07-10T11:20:16.305Z,25.18
2018-07-10T11:22:58.815Z,25.27
2018-07-10T11:25:33.905Z,25.13
2018-07-10T11:28:06.139Z,24.95
2018-07-10T11:30:37.325Z,24.99
2018-07-10T11:33:09.326Z,25.15
2018-07-10T11:35:39.847Z,25.30
2018-07-10T11:38:14.181Z,25.60
2018-07-10T11:40:46.902Z,25.34
2018-07-10T11:43:17.651Z,25.28
2018-07-10T11:45:48.111Z,25.30
2018-07-10T11:48:18.692Z,25.37
2018-07-10T11:50:49.173Z,25.31
2018-07-10T11:53:19.615Z,25.38
2018-07-10T11:55:50.083Z,25.74
2018-07-10T11:58:20.590Z,25.64
2018-07-10T12:00:51.051Z,25.40
2018-07-10T12:03:22.067Z,25.69
2018-07-10T12:05:54.429Z,25.87
2018-07-10T12:08:25.201Z,26.01
2018-07-10T12:11:12.971Z,25.51
2018-07-10T12:13:43.955Z,25.47
2018-07-10T12:16:15.128Z,25.77
2018-07-10T12:18:45.638Z,26.05
2018-07-10T12:21:17.988Z,26.19
2018-07-10T12:23:48.872Z,26.32
2018-07-10T12:26:19.640Z,26.60
2018-07-10T12:28:50.134Z,26.51
2018-07-10T12:31:20.715Z,26.37
2018-07-10T12:33:51.141Z,26.49
2018-07-10T12:36:21.724Z,26.31
2018-07-10T12:38:52.199Z,26.31
2018-07-10T12:41:22.671Z,26.73
2018-07-10T12:43:53.855Z,26.99
2018-07-10T12:46:24.374Z,26.74
2018-07-10T12:48:55.052Z,26.78
2018-07-10T12:51:25.991Z,27.03
2018-07-10T12:53:56.528Z,26.34
2018-07-10T12:56:26.970Z,24.90
2018-07-10T12:58:58.338Z,25.45
2018-07-10T13:01:28.866Z,25.96
2018-07-10T13:03:59.666Z,26.46
2018-07-10T13:06:30.140Z,26.79
2018-07-10T13:09:00.624Z,26.78
2018-07-10T13:11:31.083Z,26.83
2018-07-10T13:14:01.518Z,26.40
2018-07-10T13:16:31.960Z,26.40
2018-07-10T13:19:02.454Z,26.58
2018-07-10T13:21:33.022Z,26.39
2018-07-10T13:24:03.739Z,26.19
2018-07-10T13:26:34.198Z,26.08
2018-07-10T13:29:04.599Z,25.84
2018-07-10T13:31:35.368Z,25.77
2018-07-10T13:34:06.135Z,25.47
2018-07-10T13:36:36.611Z,25.41
2018-07-10T13:39:07.701Z,25.54
2018-07-10T13:41:38.530Z,25.68
2018-07-10T13:44:08.970Z,25.83
2018-07-10T13:46:39.422Z,25.82
2018-07-10T13:49:10.068Z,25.77
2018-07-10T13:51:40.762Z,25.78
2018-07-10T13:54:11.860Z,25.85
2018-07-10T13:56:42.652Z,25.87
2018-07-10T13:59:13.111Z,25.78
2018-07-10T14:01:43.894Z,25.64
2018-07-10T14:04:14.305Z,25.76
2018-07-10T14:06:45.155Z,25.54
2018-07-10T14:09:15.533Z,25.23
2018-07-10T14:11:46.011Z,25.18
2018-07-10T14:14:16.463Z,25.06
2018-07-10T14:16:46.915Z,24.90
2018-07-10T14:19:17.360Z,24.87
2018-07-10T14:21:48.113Z,24.59
2018-07-10T14:24:18.742Z,24.62
2018-07-10T14:26:49.265Z,24.72
2018-07-10T14:29:19.745Z,24.94
2018-07-10T14:31:50.212Z,25.06
2018-07-10T14:34:20.667Z,25.37
2018-07-10T14:36:51.100Z,25.59
2018-07-10T14:39:21.521Z,25.58
2018-07-10T14:41:54.832Z,25.89
2018-07-10T14:44:27.070Z,25.75
2018-07-10T14:46:57.835Z,25.68
2018-07-10T14:49:28.315Z,25.92
2018-07-10T14:51:59.092Z,26.14
2018-07-10T14:54:29.576Z,26.45
2018-07-10T14:57:00.148Z,26.30
2018-07-10T14:59:30.618Z,26.53
2018-07-10T15:02:01.057Z,26.65
2018-07-10T15:04:31.532Z,26.84
2018-07-10T15:07:02.331Z,26.84
2018-07-10T15:09:34.760Z,26.90
2018-07-10T15:12:05.529Z,26.59
2018-07-10T15:14:36.101Z,26.31
2018-07-10T15:17:11.676Z,26.12
2018-07-10T15:19:42.110Z,25.77
2018-07-10T15:22:12.494Z,25.37
2018-07-10T15:24:42.924Z,25.74
2018-07-10T15:27:13.498Z,25.78
2018-07-10T15:29:43.898Z,26.04
2018-07-10T15:32:14.395Z,25.73
2018-07-10T15:34:44.848Z,25.85
2018-07-10T15:37:15.322Z,26.26
2018-07-10T15:39:45.991Z,26.27
2018-07-10T15:42:16.469Z,25.68
2018-07-10T15:44:47.551Z,25.81
2018-07-10T15:47:17.943Z,25.79
2018-07-10T15:49:48.843Z,25.67
2018-07-10T15:52:19.454Z,25.92
2018-07-10T15:54:50.399Z,25.63
2018-07-10T15:57:21.284Z,25.43
2018-07-10T15:59:51.704Z,25.74
2018-07-10T16:02:22.119Z,25.56
2018-07-10T16:04:54.352Z,25.63
2018-07-10T16:07:24.843Z,25.79
2018-07-10T16:09:55.351Z,25.87
2018-07-10T16:12:26.108Z,25.88
2018-07-10T16:14:56.546Z,25.72
2018-07-10T16:17:28.472Z,25.51
2018-07-10T16:20:07.682Z,25.49
2018-07-10T16:22:40.927Z,25.77
2018-07-10T16:25:32.823Z,25.65
2018-07-10T16:28:14.082Z,25.28
2018-07-10T16:31:20.049Z,25.36
2018-07-10T16:33:50.644Z,25.22
2018-07-10T16:36:21.586Z,24.99
2018-07-10T16:38:52.056Z,24.62
2018-07-10T16:42:25.364Z,24.61
2018-07-10T16:44:56.283Z,24.60
2018-07-10T16:48:41.290Z,24.59
2018-07-10T16:51:25.746Z,24.76
2018-07-10T16:54:00.942Z,24.30
2018-07-10T16:56:31.541Z,24.21
2018-07-10T16:59:02.216Z,23.84
2018-07-10T17:01:32.734Z,23.76
2018-07-10T17:04:05.252Z,23.70
2018-07-10T17:06:35.828Z,23.92
2018-07-10T17:09:06.578Z,24.16
2018-07-10T17:11:37.062Z,24.06
2018-07-10T17:14:07.466Z,23.97
2018-07-10T17:16:38.094Z,23.89
2018-07-10T17:19:08.529Z,23.87
2018-07-10T17:21:39.575Z,23.82
2018-07-10T17:24:10.294Z,23.76
2018-07-10T17:26:41.173Z,23.84
2018-07-10T17:29:13.290Z,23.90
2018-07-10T17:31:43.959Z,23.96
2018-07-10T17:34:13.970Z,23.88
2018-07-10T17:36:44.415Z,23.90
2018-07-10T17:39:15.084Z,23.81
2018-07-10T17:41:46.878Z,23.54
2018-07-10T17:44:17.316Z,23.44
2018-07-10T17:46:47.789Z,23.26
2018-07-10T17:49:18.268Z,23.13
2018-07-10T17:51:48.771Z,23.12
2018-07-10T17:54:19.254Z,23.29
2018-07-10T17:56:49.739Z,23.16
2018-07-10T17:59:20.414Z,23.10
2018-07-10T18:01:51.522Z,23.14
2018-07-10T18:04:21.918Z,23.06
2018-07-10T18:06:52.358Z,23.06
2018-07-10T18:09:23.143Z,23.16
2018-07-10T18:11:54.720Z,22.95
2018-07-10T18:14:25.198Z,22.81
2018-07-10T18:16:55.676Z,22.36
2018-07-10T18:19:26.072Z,21.55
2018-07-10T18:21:56.983Z,21.12
2018-07-10T18:24:27.682Z,20.94
2018-07-10T18:26:58.436Z,20.73
2018-07-10T18:29:29.266Z,20.75
2018-07-10T18:31:59.611Z,20.76
2018-07-10T18:34:30.637Z,20.70
2018-07-10T18:37:01.481Z,20.65
2018-07-10T18:39:31.992Z,20.57
2018-07-10T18:42:03.883Z,20.47
2018-07-10T18:44:34.635Z,20.28
2018-07-10T18:47:05.282Z,20.06
2018-07-10T18:49:35.182Z,19.88
2018-07-10T18:52:05.913Z,19.82
2018-07-10T18:54:39.353Z,19.85
2018-07-10T18:57:27.403Z,19.81
2018-07-10T19:00:06.734Z,19.74
2018-07-10T19:02:51.609Z,19.66
2018-07-10T19:05:23.273Z,19.57
2018-07-10T19:07:53.372Z,19.61
2018-07-10T19:10:24.124Z,19.70
2018-07-10T19:12:54.053Z,19.58
2018-07-10T19:15:23.982Z,19.53
2018-07-10T19:17:54.338Z,19.43
2018-07-10T19:20:24.308Z,19.45
2018-07-10T19:23:05.481Z,19.41
2018-07-10T19:25:34.960Z,19.46
2018-07-10T19:28:05.245Z,19.43
2018-07-10T19:30:51.475Z,19.34
2018-07-10T19:33:21.863Z,19.34
2018-07-10T19:35:52.211Z,19.28
2018-07-10T19:38:22.466Z,19.17
2018-07-10T19:40:52.778Z,19.14
2018-07-10T19:43:24.899Z,19.10
2018-07-10T19:45:56.007Z,19.06
2018-07-10T19:48:25.943Z,19.08
2018-07-10T19:50:56.659Z,19.08
2018-07-10T19:53:26.887Z,19.13
2018-07-10T19:55:56.743Z,19.12
2018-07-10T19:58:33.653Z,19.12
2018-07-10T20:02:08.731Z,19.11
2018-07-10T20:05:00.801Z,19.12
2018-07-10T20:07:59.613Z,19.04
2018-07-10T20:10:46.807Z,18.99
2018-07-10T20:13:33.681Z,19.02
2018-07-10T20:16:13.462Z,19.05
2018-07-10T20:19:03.237Z,19.03
2018-07-10T20:23:00.030Z,19.04
2018-07-10T20:28:48.728Z,18.93
2018-07-10T20:31:42.015Z,18.90
2018-07-10T20:34:56.318Z,18.96
2018-07-10T20:37:30.224Z,18.94
2018-07-10T20:40:00.449Z,19.00
2018-07-10T20:42:41.613Z,19.08
2018-07-10T20:45:11.990Z,18.93
2018-07-10T20:48:01.016Z,18.91
2018-07-10T20:50:42.518Z,18.86
2018-07-10T20:53:59.382Z,18.69
2018-07-10T20:57:16.645Z,18.49
2018-07-10T20:59:47.587Z,18.40
2018-07-10T21:04:36.470Z,18.21
2018-07-10T21:07:14.612Z,18.27
2018-07-10T21:09:56.930Z,18.27
2018-07-10T21:12:35.904Z,18.19
2018-07-10T21:15:09.457Z,18.08
2018-07-10T21:18:57.444Z,18.11
2018-07-10T21:21:48.673Z,18.03
2018-07-10T21:24:29.356Z,18.06
2018-07-10T21:27:10.624Z,18.06
2018-07-10T21:30:02.086Z,18.05
2018-07-10T21:32:46.044Z,18.04
2018-07-10T21:35:16.159Z,18.01
2018-07-10T21:38:28.509Z,17.94
2018-07-10T21:41:15.957Z,18.02
2018-07-10T21:45:18.058Z,17.86
2018-07-10T21:48:04.926Z,17.86
2018-07-10T21:50:41.570Z,17.79
2018-07-10T21:53:11.486Z,17.75
2018-07-10T21:55:41.414Z,17.68
2018-07-10T21:58:11.615Z,17.77
2018-07-10T22:01:54.566Z,17.75
2018-07-10T22:04:27.619Z,17.63
2018-07-10T22:06:59.804Z,17.62
2018-07-10T22:09:35.062Z,17.56
2018-07-10T22:12:21.498Z,17.50
2018-07-10T22:14:54.496Z,17.44
2018-07-10T22:17:26.703Z,17.33
2018-07-10T22:19:58.034Z,17.28
2018-07-10T22:22:30.859Z,17.19
2018-07-10T22:25:04.549Z,17.18
2018-07-10T22:27:34.445Z,17.17
2018-07-10T22:30:09.351Z,17.16
2018-07-10T22:32:46.415Z,17.16
2018-07-10T22:35:17.243Z,17.28
2018-07-10T22:37:47.131Z,17.23
2018-07-10T22:40:18.779Z,17.31
2018-07-10T22:42:48.745Z,17.23
2018-07-10T22:45:19.979Z,17.24
2018-07-10T22:47:50.741Z,17.12
2018-07-10T22:50:23.865Z,17.02
2018-07-10T22:52:56.341Z,16.92
2018-07-10T22:55:28.713Z,16.89
2018-07-10T22:58:07.360Z,16.85
2018-07-10T23:00:39.408Z,16.84
2018-07-10T23:03:26.382Z,16.79
2018-07-10T23:05:56.619Z,16.73
2018-07-10T23:08:32.642Z,16.65
2018-07-10T23:11:06.652Z,16.63
2018-07-10T23:13:40.698Z,16.60
2018-07-10T23:16:12.284Z,16.54
2018-07-10T23:18:44.483Z,16.45
2018-07-10T23:21:18.222Z,16.41
2018-07-10T23:23:49.090Z,16.37
2018-07-10T23:26:19.902Z,16.28
2018-07-10T23:28:54.180Z,16.26
2018-07-10T23:31:28.670Z,16.19
2018-07-10T23:34:11.241Z,16.15
2018-07-10T23:36:41.180Z,16.16
2018-07-10T23:39:12.154Z,16.22
2018-07-10T23:41:53.306Z,16.09
2018-07-10T23:44:30.816Z,16.08
2018-07-10T23:47:10.484Z,15.93
2018-07-10T23:49:40.904Z,15.88
2018-07-10T23:53:30.132Z,15.79
2018-07-10T23:55:59.991Z,15.70
2018-07-10T23:58:29.918Z,15.65
